Weather History for Chievres, Belgium

Change the Weather History Date:

Wednesday, October 2, 2013

  Actual Average Record
Temperature  
Mean Temperature 58 °F -  
Max Temperature 69 °F 53 °F 78 °F (2011)
Min Temperature 46 °F 45 °F 41 °F (1996)
Degree Days  
Heating Degree Days 8    
Growing Degree Days 8 (Base 50)    
Moisture  
Dew Point 46 °F    
Average Humidity 78    
Maximum Humidity 93    
Minimum Humidity 53    
Precipitation  
Precipitation 0.00 in - - ()
Sea Level Pressure  
Sea Level Pressure 29.93 in    
Wind  
Wind Speed 6 mph ()    
Max Wind Speed 12 mph    
Max Gust Speed -    
Visibility 5.5 miles    
Events      
Averages and records for this station are not official NWS values.
T = Trace of Precipitation, MM = Missing Value Source: Averaged Metar Reports

Daily Weather History Graph

Daily Weather History Graph

Search for Another Location

Airport:

Trip Planner

Search our weather history database for the weather conditions in past years. The results will help you decide how hot, cold, wet, or windy it might be!

Date:

Astronomy

Oct. 02, 2013 Rise Set
Actual Time 7:46 AM CEST 7:20 PM CEST
Civil Twilight 7:13 AM CEST 7:53 PM CEST
Nautical Twilight 6:35 AM CEST 8:30 PM CEST
Astronomical Twilight 5:57 AM CEST 9:09 PM CEST
Moon 4:50 AM CEST (10/2) 5:58 PM CEST (10/2)
Length of Visible Light 12h 39m
Length of Day
11h 33m
Waning Crescent, 7% of the Moon is Illuminated
Oct 2
Waning Crescent
Oct 5
New
Oct 12
First Quarter
Oct 19
Full
Oct 27
Last Quarter

Hourly Weather History & Observations

Time (CEST) Temp. Windchill Dew Point Humidity Pressure Visibility Wind Dir Wind Speed Gust Speed Precip Events Conditions
12:04 AM 50.0 °F - 46.4 °F 87% 29.92 in 5.0 mi East 4.6 mph - N/A   Unknown
12:06 AM 50.0 °F - 46.4 °F 87% 29.92 in 4.3 mi ESE 4.6 mph - N/A   Unknown
12:16 AM 50.0 °F - 44.6 °F 82% 29.92 in 6.2 mi ESE 5.8 mph - N/A   Unknown
12:23 AM 48.2 °F - 44.6 °F 87% 29.92 in 3.7 mi ESE 5.8 mph - N/A   Unknown
12:25 AM 48.2 °F - 44.6 °F 87% 29.92 in 6.2 mi ESE 6.9 mph - N/A   Unknown
12:38 AM 50.0 °F - 46.4 °F 87% 29.92 in 3.7 mi ESE 6.9 mph - N/A   Unknown
12:56 AM 50.0 °F - 44.6 °F 82% 29.92 in 6.2 mi ESE 6.9 mph - N/A   Unknown
1:04 AM 50.0 °F - 44.6 °F 82% 29.92 in 4.3 mi ESE 6.9 mph - N/A   Unknown
1:14 AM 50.0 °F - 44.6 °F 82% 29.92 in 6.2 mi ESE 6.9 mph - N/A   Unknown
1:25 AM 50.0 °F - 44.6 °F 82% 29.92 in 6.2 mi East 6.9 mph - N/A   Unknown
1:36 AM 48.2 °F - 44.6 °F 87% 29.92 in 4.3 mi East 5.8 mph - N/A   Unknown
1:52 AM 48.2 °F - 44.6 °F 87% 29.92 in 6.2 mi ESE 5.8 mph - N/A   Unknown
2:00 AM 49 °F - 44 °F 79% 29.93 in 6 mi ESE 4.5 mph - -  
2:04 AM 48.2 °F - 44.6 °F 87% 29.92 in 4.3 mi ESE 4.6 mph - N/A   Unknown
2:25 AM 48.2 °F - 44.6 °F 87% 29.92 in 6.2 mi East 6.9 mph - N/A   Unknown
2:34 AM 48.2 °F - 44.6 °F 87% 29.92 in 3.7 mi East 5.8 mph - N/A   Unknown
2:44 AM 48.2 °F - 44.6 °F 87% 29.92 in - East 6.9 mph - N/A   Unknown
2:55 AM 48.2 °F - 44.6 °F 87% 29.92 in 6.2 mi East 6.9 mph - N/A   Unknown
2:56 AM 48.2 °F - 44.6 °F 87% 29.92 in 4.3 mi East 6.9 mph - N/A   Unknown
3:07 AM 48.2 °F - 44.6 °F 87% 29.92 in 6.2 mi East 6.9 mph - N/A   Unknown
3:25 AM 48.2 °F - 44.6 °F 87% 29.92 in 6.2 mi East 9.2 mph - N/A   Unknown
3:34 AM 48.2 °F - 44.6 °F 87% 29.92 in 4.3 mi East 9.2 mph - N/A   Unknown
3:53 AM 48.2 °F - 44.6 °F 87% 29.92 in 5.6 mi East 8.1 mph - N/A   Unknown
4:17 AM 48.2 °F - 44.6 °F 87% 29.92 in 4.3 mi East 9.2 mph - N/A   Unknown
4:25 AM 48.2 °F - 44.6 °F 87% 29.92 in 5.6 mi East 9.2 mph - N/A   Unknown
4:34 AM 48.2 °F - 44.6 °F 87% 29.92 in 4.3 mi East 9.2 mph - N/A   Unknown
4:45 AM 48.2 °F - 44.6 °F 87% 29.92 in 5.0 mi East 9.2 mph - N/A   Unknown
5:00 AM 47 °F - 44 °F 84% 29.93 in 5 mi East 8.9 mph - -  
5:04 AM 46.4 °F 41.5 °F 44.6 °F 93% 29.92 in 4.3 mi East 10.4 mph - N/A   Unknown
5:25 AM 46.4 °F 41.5 °F 42.8 °F 87% 29.92 in 5.0 mi East 10.4 mph - N/A   Unknown
5:34 AM 46.4 °F 41.1 °F 42.8 °F 87% 29.92 in 4.3 mi East 11.5 mph - N/A   Unknown
6:25 AM 46.4 °F 41.9 °F 42.8 °F 87% 29.92 in 5.0 mi East 9.2 mph - N/A   Unknown
6:34 AM 46.4 °F 42.4 °F 42.8 °F 87% 29.92 in 4.3 mi East 8.1 mph - N/A   Unknown
6:45 AM 46.4 °F 42.9 °F 42.8 °F 87% 29.92 in 6.2 mi East 6.9 mph - N/A   Unknown
7:05 AM 46.4 °F 42.4 °F 42.8 °F 87% 29.92 in 4.3 mi East 8.1 mph - N/A   Unknown
7:16 AM 46.4 °F 42.9 °F 42.8 °F 87% 29.92 in 6.2 mi East 6.9 mph - N/A   Unknown
7:20 AM 46.4 °F 42.9 °F 42.8 °F 87% 29.92 in 3.7 mi East 6.9 mph - N/A   Unknown
7:25 AM 46.4 °F 43.5 °F 42.8 °F 87% 29.92 in 6.2 mi ESE 5.8 mph - N/A   Unknown
7:43 AM 46.4 °F 44.3 °F 42.8 °F 87% 29.92 in 4.3 mi East 4.6 mph - N/A   Unknown
7:54 AM 46.4 °F 43.5 °F 42.8 °F 87% 29.92 in 6.2 mi East 5.8 mph - N/A   Unknown
8:00 AM 47 °F - 43 °F 80% 29.93 in 6 mi East 4.5 mph - -  
8:13 AM 46.4 °F 44.3 °F 42.8 °F 87% 29.92 in 3.7 mi East 4.6 mph - N/A   Unknown
8:25 AM 46.4 °F - 42.8 °F 87% 29.92 in 5.6 mi Variable 2.3 mph - N/A   Unknown
8:34 AM 46.4 °F 45.2 °F 42.8 °F 87% 29.92 in 3.7 mi East 3.5 mph - N/A   Unknown
8:56 AM 48.2 °F - 42.8 °F 82% 29.92 in 6.2 mi East 6.9 mph - N/A   Unknown
9:09 AM 48.2 °F - 42.8 °F 82% 29.92 in 4.3 mi East 4.6 mph - N/A   Unknown
9:20 AM 48.2 °F - 44.6 °F 87% 29.92 in 6.2 mi East 3.5 mph - N/A   Unknown
9:25 AM 48.2 °F - 44.6 °F 87% 29.92 in 5.6 mi East 4.6 mph - N/A   Unknown
10:25 AM 53.6 °F - 46.4 °F 77% 29.95 in 6.2 mi East 5.8 mph - N/A   Unknown
10:53 AM 55.4 °F - 46.4 °F 72% 29.95 in 3.1 mi ESE 9.2 mph - N/A   Unknown
11:00 AM 56 °F - 47 °F 62% 29.95 in 7 mi ESE 8.9 mph - -  
11:04 AM 57.2 °F - 46.4 °F 67% 29.95 in 6.2 mi SE 8.1 mph - N/A   Unknown
11:13 AM 57.2 °F - 46.4 °F 67% 29.95 in 3.7 mi ESE 9.2 mph - N/A   Unknown
11:23 AM 57.2 °F - 46.4 °F 67% 29.95 in 6.2 mi SE 8.1 mph - N/A   Unknown
11:25 AM 57.2 °F - 48.2 °F 72% 29.95 in 6.2 mi SE 8.1 mph - N/A   Unknown
12:25 PM 60.8 °F - 50.0 °F 68% 29.95 in 6.2 mi ESE 9.2 mph - N/A   Unknown
1:25 PM 64.4 °F - 51.8 °F 64% 29.95 in 6.2 mi SE 8.1 mph - N/A   Unknown
2:00 PM 66 °F - 53 °F 53% 29.95 in 9 mi SE 6.7 mph - -  
2:06 PM 66.2 °F - 53.6 °F 64% 29.95 in 3.7 mi SE 6.9 mph - N/A   Unknown
2:25 PM 66.2 °F - 51.8 °F 60% 29.95 in 6.2 mi SSE 10.4 mph - N/A   Unknown
2:44 PM 68.0 °F - 51.8 °F 56% 29.95 in 3.7 mi SE 10.4 mph - N/A   Unknown
2:55 PM 68.0 °F - 53.6 °F 60% 29.95 in 5.6 mi SE 8.1 mph - N/A   Unknown
2:57 PM 68.0 °F - 53.6 °F 60% 29.95 in 4.3 mi SE 8.1 mph - N/A   Unknown
3:16 PM 68.0 °F - 55.4 °F 64% 29.92 in 6.2 mi SE 6.9 mph - N/A   Unknown
3:25 PM 68.0 °F - 53.6 °F 60% 29.92 in 6.2 mi SE 10.4 mph - N/A   Unknown
4:25 PM 68.0 °F - 51.8 °F 56% 29.92 in 6.2 mi SE 10.4 mph - N/A   Mostly Cloudy
5:00 PM 67 °F - 54 °F 53% 29.94 in 14 mi SSE 6.7 mph - -   Mostly Cloudy
5:25 PM 68.0 °F - 53.6 °F 60% 29.92 in 6.2 mi SE 5.8 mph - N/A   Mostly Cloudy
6:25 PM 66.2 °F - 51.8 °F 60% 29.95 in 6.2 mi ESE 6.9 mph - N/A   Partly Cloudy
7:25 PM 60.8 °F - 51.8 °F 72% 29.95 in 6.2 mi SE 3.5 mph - N/A   Unknown
8:00 PM 60 °F - 51 °F 64% 29.97 in 9 mi 2.2 mph - -  
8:25 PM 57.2 °F - 51.8 °F 82% 29.98 in 6.2 mi Variable 2.3 mph - N/A   Partly Cloudy
9:25 PM 59.0 °F - 50.0 °F 72% 29.98 in 6.2 mi SE 5.8 mph - N/A   Partly Cloudy
10:25 PM 57.2 °F - 48.2 °F 72% 29.98 in 6.2 mi SE 5.8 mph - N/A   Unknown
11:00 PM 56 °F - 48 °F 66% 29.99 in 22 mi ESE 4.5 mph - -  
11:25 PM 55.4 °F - 46.4 °F 72% 29.98 in 6.2 mi ESE 3.5 mph - N/A   Unknown